ACA46 KBOS-CYUL
Flight info
| Callsign | ACA46 |
|---|---|
| Flight time | 0h 49m |
| Altitude | 32000 |
| Route | HYLND7 HYLND PBERG CARTR5 |
| Aircraft | A321/M-SDE3FGHIRWY/LB1 |
Departure
| Time | 2026-05-07 00:42 |
|---|---|
| Airport | Boston Logan International Airport (KBOS) |
Arrival
| Time | 2026-05-07 01:31 |
|---|---|
| Airport | Montreal / Pierre Elliott Trudeau International Airport (CYUL) |
| Time | Latitude | Longitude | Altitude | Speed | Heading |
|---|---|---|---|---|---|
| 2026-05-07 00:08 | 42.36015 | -71.01871 | 26 ft | 0 kts | 31° |
| 2026-05-07 00:30 | 42.35997 | -71.01887 | 30 ft | 4 kts | 40° |
| 2026-05-07 00:30 | 42.35979 | -71.01913 | 30 ft | 4 kts | 65° |
| 2026-05-07 00:31 | 42.35975 | -71.01945 | 30 ft | 4 kts | 114° |
| 2026-05-07 00:31 | 42.35977 | -71.01952 | 30 ft | 0 kts | 120° |
| 2026-05-07 00:35 | 42.35970 | -71.01937 | 30 ft | 5 kts | 120° |
| 2026-05-07 00:35 | 42.35940 | -71.01867 | 30 ft | 12 kts | 120° |
| 2026-05-07 00:35 | 42.35915 | -71.01783 | 29 ft | 7 kts | 103° |
| 2026-05-07 00:35 | 42.35902 | -71.01701 | 28 ft | 12 kts | 101° |
| 2026-05-07 00:36 | 42.35889 | -71.01614 | 28 ft | 7 kts | 99° |
| 2026-05-07 00:36 | 42.35916 | -71.01539 | 26 ft | 15 kts | 30° |
| 2026-05-07 00:36 | 42.36047 | -71.01476 | 27 ft | 25 kts | 18° |
| 2026-05-07 00:36 | 42.36212 | -71.01393 | 27 ft | 24 kts | 19° |
| 2026-05-07 00:37 | 42.36349 | -71.01328 | 26 ft | 19 kts | 20° |
| 2026-05-07 00:37 | 42.36492 | -71.01258 | 27 ft | 23 kts | 20° |
| 2026-05-07 00:37 | 42.36629 | -71.01191 | 27 ft | 19 kts | 20° |
| 2026-05-07 00:37 | 42.36754 | -71.01142 | 27 ft | 21 kts | 359° |
| 2026-05-07 00:38 | 42.36883 | -71.01225 | 25 ft | 13 kts | 8° |
| 2026-05-07 00:38 | 42.36960 | -71.01142 | 28 ft | 18 kts | 41° |
| 2026-05-07 00:38 | 42.37096 | -71.01038 | 30 ft | 26 kts | 26° |
| 2026-05-07 00:38 | 42.37226 | -71.00955 | 26 ft | 9 kts | 25° |
| 2026-05-07 00:39 | 42.37272 | -71.00926 | 26 ft | 9 kts | 25° |
| 2026-05-07 00:39 | 42.37382 | -71.00868 | 27 ft | 25 kts | 19° |
| 2026-05-07 00:39 | 42.37586 | -71.00771 | 28 ft | 32 kts | 19° |
| 2026-05-07 00:39 | 42.37772 | -71.00681 | 27 ft | 25 kts | 20° |
| 2026-05-07 00:40 | 42.37791 | -71.00671 | 27 ft | 0 kts | 20° |
| 2026-05-07 00:40 | 42.37805 | -71.00663 | 28 ft | 8 kts | 25° |
| 2026-05-07 00:40 | 42.37829 | -71.00556 | 25 ft | 16 kts | 103° |
| 2026-05-07 00:41 | 42.37752 | -71.00495 | 26 ft | 11 kts | 192° |
| 2026-05-07 00:41 | 42.37635 | -71.00549 | 29 ft | 39 kts | 200° |
| 2026-05-07 00:41 | 42.37180 | -71.00771 | 26 ft | 99 kts | 199° |
| 2026-05-07 00:41 | 42.36378 | -71.01166 | 36 ft | 144 kts | 201° |
| 2026-05-07 00:42 | 42.35452 | -71.01605 | 684 ft | 137 kts | 200° |
| 2026-05-07 00:42 | 42.34493 | -71.01672 | 1293 ft | 144 kts | 177° |
| 2026-05-07 00:42 | 42.33571 | -71.01006 | 1858 ft | 163 kts | 148° |
| 2026-05-07 00:42 | 42.32797 | -70.99749 | 2106 ft | 185 kts | 139° |
| 2026-05-07 00:43 | 42.31952 | -70.98304 | 2265 ft | 207 kts | 136° |
| 2026-05-07 00:43 | 42.31289 | -70.96434 | 2397 ft | 237 kts | 106° |
| 2026-05-07 00:43 | 42.31351 | -70.94118 | 2558 ft | 257 kts | 78° |
| 2026-05-07 00:43 | 42.31746 | -70.91723 | 2698 ft | 276 kts | 78° |
| 2026-05-07 00:44 | 42.32160 | -70.89085 | 3064 ft | 292 kts | 79° |
| 2026-05-07 00:44 | 42.32574 | -70.86372 | 3789 ft | 298 kts | 78° |
| 2026-05-07 00:44 | 42.33055 | -70.83616 | 4528 ft | 303 kts | 70° |
| 2026-05-07 00:44 | 42.34084 | -70.81140 | 4882 ft | 303 kts | 45° |
| 2026-05-07 00:45 | 42.35717 | -70.79433 | 4989 ft | 294 kts | 20° |
| 2026-05-07 00:45 | 42.37643 | -70.78724 | 5044 ft | 286 kts | 356° |
| 2026-05-07 00:45 | 42.39588 | -70.79025 | 5782 ft | 277 kts | 336° |
| 2026-05-07 00:45 | 42.41289 | -70.80124 | 6578 ft | 268 kts | 317° |
| 2026-05-07 00:46 | 42.42671 | -70.81778 | 7321 ft | 265 kts | 310° |
| 2026-05-07 00:46 | 42.44002 | -70.83480 | 8036 ft | 268 kts | 310° |
| 2026-05-07 00:46 | 42.45364 | -70.85225 | 8755 ft | 271 kts | 310° |
| 2026-05-07 00:46 | 42.46738 | -70.86995 | 9479 ft | 274 kts | 310° |
| 2026-05-07 00:47 | 42.48124 | -70.88783 | 10144 ft | 277 kts | 310° |
| 2026-05-07 00:47 | 42.49568 | -70.90654 | 10355 ft | 298 kts | 310° |
| 2026-05-07 00:47 | 42.51117 | -70.92666 | 10479 ft | 319 kts | 310° |
| 2026-05-07 00:47 | 42.52770 | -70.94815 | 10602 ft | 339 kts | 311° |
| 2026-05-07 00:48 | 42.54528 | -70.97091 | 10722 ft | 359 kts | 311° |
| 2026-05-07 00:48 | 42.56358 | -70.99449 | 10904 ft | 374 kts | 311° |
| 2026-05-07 00:48 | 42.58269 | -71.01896 | 11371 ft | 380 kts | 311° |
| 2026-05-07 00:48 | 42.60204 | -71.04368 | 11929 ft | 384 kts | 311° |
| 2026-05-07 00:49 | 42.62153 | -71.06862 | 12480 ft | 386 kts | 311° |
| 2026-05-07 00:49 | 42.64106 | -71.09376 | 13041 ft | 389 kts | 311° |
| 2026-05-07 00:49 | 42.66074 | -71.11922 | 13577 ft | 392 kts | 311° |
| 2026-05-07 00:49 | 42.68057 | -71.14493 | 14043 ft | 395 kts | 310° |
| 2026-05-07 00:50 | 42.70054 | -71.17086 | 14511 ft | 399 kts | 310° |
| 2026-05-07 00:50 | 42.72066 | -71.19697 | 14973 ft | 401 kts | 310° |
| 2026-05-07 00:50 | 42.74066 | -71.22296 | 15425 ft | 404 kts | 309° |
| 2026-05-07 00:50 | 42.76105 | -71.24951 | 15877 ft | 407 kts | 309° |
| 2026-05-07 00:51 | 42.78159 | -71.27625 | 16323 ft | 410 kts | 309° |
| 2026-05-07 00:51 | 42.80294 | -71.30245 | 16764 ft | 416 kts | 312° |
| 2026-05-07 00:51 | 42.82523 | -71.32790 | 17213 ft | 420 kts | 313° |
| 2026-05-07 00:51 | 42.84811 | -71.35298 | 17667 ft | 424 kts | 314° |
| 2026-05-07 00:52 | 42.86341 | -71.36954 | 17961 ft | 426 kts | 313° |
| 2026-05-07 00:52 | 42.88669 | -71.39477 | 18393 ft | 429 kts | 314° |
| 2026-05-07 00:52 | 42.90999 | -71.42030 | 18784 ft | 431 kts | 313° |
| 2026-05-07 00:52 | 42.93325 | -71.44619 | 19179 ft | 432 kts | 313° |
| 2026-05-07 00:53 | 42.96405 | -71.48092 | 19692 ft | 435 kts | 313° |
| 2026-05-07 00:53 | 42.98739 | -71.50743 | 20073 ft | 437 kts | 313° |
| 2026-05-07 00:53 | 43.00322 | -71.52546 | 20326 ft | 439 kts | 313° |
| 2026-05-07 00:53 | 43.02643 | -71.55188 | 20717 ft | 441 kts | 313° |
| 2026-05-07 00:54 | 43.05008 | -71.57877 | 21146 ft | 443 kts | 313° |
| 2026-05-07 00:54 | 43.07386 | -71.60572 | 21530 ft | 445 kts | 313° |
| 2026-05-07 00:54 | 43.09779 | -71.63279 | 21895 ft | 447 kts | 313° |
| 2026-05-07 00:54 | 43.12177 | -71.65998 | 22256 ft | 450 kts | 313° |
| 2026-05-07 00:55 | 43.14591 | -71.68743 | 22605 ft | 453 kts | 313° |
| 2026-05-07 00:55 | 43.17018 | -71.71509 | 22925 ft | 455 kts | 313° |
| 2026-05-07 00:55 | 43.19458 | -71.74292 | 23273 ft | 457 kts | 313° |
| 2026-05-07 00:55 | 43.21908 | -71.77092 | 23585 ft | 459 kts | 313° |
| 2026-05-07 00:56 | 43.24365 | -71.79902 | 23940 ft | 460 kts | 313° |
| 2026-05-07 00:56 | 43.26791 | -71.82678 | 24286 ft | 460 kts | 313° |
| 2026-05-07 00:56 | 43.29251 | -71.85494 | 24616 ft | 461 kts | 313° |
| 2026-05-07 00:56 | 43.31708 | -71.88312 | 24971 ft | 459 kts | 313° |
| 2026-05-07 00:57 | 43.34150 | -71.91115 | 25470 ft | 456 kts | 313° |
| 2026-05-07 00:57 | 43.36569 | -71.93895 | 25970 ft | 451 kts | 313° |
| 2026-05-07 00:57 | 43.38968 | -71.96647 | 26461 ft | 447 kts | 312° |
| 2026-05-07 00:57 | 43.41340 | -71.99372 | 26949 ft | 444 kts | 312° |
| 2026-05-07 00:58 | 43.43697 | -72.02088 | 27426 ft | 440 kts | 312° |
| 2026-05-07 00:58 | 43.46033 | -72.04788 | 27886 ft | 437 kts | 311° |
| 2026-05-07 00:58 | 43.48352 | -72.07472 | 28353 ft | 434 kts | 311° |
| 2026-05-07 00:58 | 43.50654 | -72.10139 | 28834 ft | 431 kts | 311° |
| 2026-05-07 00:59 | 43.55180 | -72.15388 | 29705 ft | 425 kts | 311° |
| 2026-05-07 00:59 | 43.57436 | -72.18004 | 30098 ft | 422 kts | 310° |
| 2026-05-07 00:59 | 43.59679 | -72.20608 | 30502 ft | 421 kts | 312° |
| 2026-05-07 01:00 | 43.61931 | -72.23229 | 30687 ft | 425 kts | 310° |
| 2026-05-07 01:00 | 43.64190 | -72.25860 | 30907 ft | 426 kts | 311° |
| 2026-05-07 01:00 | 43.66462 | -72.28504 | 31134 ft | 428 kts | 311° |
| 2026-05-07 01:00 | 43.68706 | -72.31114 | 31450 ft | 427 kts | 311° |
| 2026-05-07 01:01 | 43.71003 | -72.33788 | 31767 ft | 426 kts | 311° |
| 2026-05-07 01:01 | 43.75474 | -72.39011 | 31855 ft | 423 kts | 311° |
| 2026-05-07 01:02 | 43.79957 | -72.44262 | 31857 ft | 422 kts | 311° |
| 2026-05-07 01:02 | 43.84431 | -72.49516 | 31898 ft | 423 kts | 311° |
| 2026-05-07 01:03 | 43.85525 | -72.50805 | 31868 ft | 426 kts | 311° |
| 2026-05-07 01:03 | 43.86022 | -72.51391 | 31492 ft | 426 kts | 316° |
| 2026-05-07 01:04 | 43.88285 | -72.54054 | 31906 ft | 429 kts | 311° |
| 2026-05-07 01:04 | 43.92838 | -72.59421 | 31886 ft | 430 kts | 311° |
| 2026-05-07 01:05 | 43.97393 | -72.64803 | 31895 ft | 430 kts | 311° |
| 2026-05-07 01:05 | 44.01948 | -72.70188 | 31895 ft | 430 kts | 311° |
| 2026-05-07 01:06 | 44.06466 | -72.75535 | 31925 ft | 429 kts | 311° |
| 2026-05-07 01:06 | 44.11040 | -72.80972 | 31909 ft | 435 kts | 311° |
| 2026-05-07 01:07 | 44.15639 | -72.86465 | 31880 ft | 436 kts | 311° |
| 2026-05-07 01:07 | 44.20255 | -72.91970 | 31879 ft | 437 kts | 312° |
| 2026-05-07 01:08 | 44.24852 | -72.97448 | 31881 ft | 438 kts | 312° |
| 2026-05-07 01:08 | 44.29472 | -73.02973 | 31915 ft | 438 kts | 311° |
| 2026-05-07 01:09 | 44.34093 | -73.08523 | 31900 ft | 439 kts | 312° |
| 2026-05-07 01:09 | 44.38695 | -73.14065 | 31675 ft | 429 kts | 312° |
| 2026-05-07 01:09 | 44.40924 | -73.16736 | 31542 ft | 415 kts | 311° |
| 2026-05-07 01:10 | 44.43081 | -73.19321 | 31290 ft | 401 kts | 311° |
| 2026-05-07 01:10 | 44.45155 | -73.21817 | 30270 ft | 398 kts | 312° |
| 2026-05-07 01:10 | 44.47244 | -73.24347 | 29115 ft | 396 kts | 312° |
| 2026-05-07 01:10 | 44.49313 | -73.26861 | 28199 ft | 393 kts | 311° |
| 2026-05-07 01:11 | 44.51361 | -73.29356 | 27749 ft | 389 kts | 311° |
| 2026-05-07 01:11 | 44.53429 | -73.31884 | 26634 ft | 401 kts | 311° |
| 2026-05-07 01:11 | 44.55564 | -73.34503 | 25537 ft | 414 kts | 311° |
| 2026-05-07 01:11 | 44.57763 | -73.37196 | 24462 ft | 426 kts | 311° |
| 2026-05-07 01:12 | 44.60012 | -73.39934 | 23716 ft | 428 kts | 312° |
| 2026-05-07 01:12 | 44.62265 | -73.42658 | 22993 ft | 423 kts | 312° |
| 2026-05-07 01:12 | 44.64477 | -73.45327 | 22089 ft | 417 kts | 312° |
| 2026-05-07 01:12 | 44.66654 | -73.47957 | 21175 ft | 409 kts | 311° |
| 2026-05-07 01:13 | 44.68889 | -73.50402 | 20288 ft | 409 kts | 321° |
| 2026-05-07 01:13 | 44.71477 | -73.52086 | 19368 ft | 414 kts | 336° |
| 2026-05-07 01:13 | 44.74298 | -73.52793 | 18552 ft | 423 kts | 348° |
| 2026-05-07 01:13 | 44.77221 | -73.53114 | 17992 ft | 419 kts | 348° |
| 2026-05-07 01:14 | 44.80113 | -73.53445 | 17340 ft | 415 kts | 348° |
| 2026-05-07 01:14 | 44.83020 | -73.53794 | 16248 ft | 424 kts | 348° |
| 2026-05-07 01:14 | 44.85961 | -73.54156 | 15546 ft | 424 kts | 349° |
| 2026-05-07 01:14 | 44.88891 | -73.54505 | 14970 ft | 421 kts | 349° |
| 2026-05-07 01:15 | 44.91795 | -73.54827 | 14393 ft | 416 kts | 350° |
| 2026-05-07 01:15 | 44.94664 | -73.55131 | 13831 ft | 412 kts | 350° |
| 2026-05-07 01:15 | 44.97509 | -73.55426 | 13261 ft | 408 kts | 350° |
| 2026-05-07 01:15 | 45.00325 | -73.55729 | 12706 ft | 404 kts | 350° |
| 2026-05-07 01:16 | 45.03113 | -73.56035 | 12168 ft | 400 kts | 350° |
| 2026-05-07 01:16 | 45.05837 | -73.56337 | 11634 ft | 396 kts | 350° |
| 2026-05-07 01:16 | 45.08576 | -73.56639 | 11096 ft | 393 kts | 351° |
| 2026-05-07 01:16 | 45.11291 | -73.56937 | 10609 ft | 389 kts | 351° |
| 2026-05-07 01:17 | 45.13905 | -73.57218 | 10325 ft | 361 kts | 351° |
| 2026-05-07 01:17 | 45.16303 | -73.57467 | 10090 ft | 330 kts | 350° |
| 2026-05-07 01:17 | 45.18499 | -73.57696 | 9837 ft | 306 kts | 349° |
| 2026-05-07 01:17 | 45.20583 | -73.57928 | 9183 ft | 296 kts | 350° |
| 2026-05-07 01:18 | 45.22611 | -73.58161 | 8511 ft | 288 kts | 351° |
| 2026-05-07 01:18 | 45.24580 | -73.58388 | 7876 ft | 280 kts | 351° |
| 2026-05-07 01:18 | 45.26490 | -73.58606 | 7649 ft | 275 kts | 352° |
| 2026-05-07 01:18 | 45.28409 | -73.58830 | 7535 ft | 277 kts | 352° |
| 2026-05-07 01:19 | 45.30301 | -73.59049 | 7333 ft | 275 kts | 352° |
| 2026-05-07 01:19 | 45.32202 | -73.59263 | 7031 ft | 273 kts | 352° |
| 2026-05-07 01:19 | 45.34085 | -73.59470 | 6713 ft | 270 kts | 353° |
| 2026-05-07 01:19 | 45.35950 | -73.59672 | 6400 ft | 268 kts | 353° |
| 2026-05-07 01:20 | 45.37801 | -73.59801 | 6088 ft | 266 kts | 1° |
| 2026-05-07 01:20 | 45.39619 | -73.59309 | 6003 ft | 268 kts | 17° |
| 2026-05-07 01:20 | 45.41300 | -73.58118 | 6014 ft | 272 kts | 32° |
| 2026-05-07 01:20 | 45.42871 | -73.56603 | 6014 ft | 273 kts | 32° |
| 2026-05-07 01:21 | 45.44425 | -73.55110 | 6015 ft | 273 kts | 32° |
| 2026-05-07 01:21 | 45.45999 | -73.53601 | 5917 ft | 275 kts | 32° |
| 2026-05-07 01:21 | 45.47604 | -73.52059 | 5150 ft | 279 kts | 32° |
| 2026-05-07 01:21 | 45.49197 | -73.50522 | 4430 ft | 273 kts | 31° |
| 2026-05-07 01:22 | 45.50713 | -73.49052 | 4146 ft | 252 kts | 31° |
| 2026-05-07 01:22 | 45.52107 | -73.47698 | 4027 ft | 238 kts | 31° |
| 2026-05-07 01:22 | 45.53457 | -73.46396 | 4034 ft | 231 kts | 31° |
| 2026-05-07 01:22 | 45.54765 | -73.45135 | 4014 ft | 224 kts | 30° |
| 2026-05-07 01:23 | 45.56038 | -73.43906 | 4016 ft | 224 kts | 30° |
| 2026-05-07 01:23 | 45.57239 | -73.42478 | 4020 ft | 226 kts | 39° |
| 2026-05-07 01:23 | 45.58516 | -73.41246 | 4011 ft | 219 kts | 14° |
| 2026-05-07 01:23 | 45.59989 | -73.41188 | 4017 ft | 211 kts | 339° |
| 2026-05-07 01:24 | 45.61232 | -73.42233 | 4019 ft | 208 kts | 319° |
| 2026-05-07 01:24 | 45.62330 | -73.43577 | 4018 ft | 208 kts | 316° |
| 2026-05-07 01:24 | 45.63386 | -73.44916 | 4009 ft | 200 kts | 316° |
| 2026-05-07 01:24 | 45.64417 | -73.46228 | 4011 ft | 198 kts | 315° |
| 2026-05-07 01:25 | 45.65133 | -73.47852 | 4016 ft | 196 kts | 282° |
| 2026-05-07 01:25 | 45.65074 | -73.49792 | 4020 ft | 198 kts | 259° |
| 2026-05-07 01:25 | 45.64673 | -73.51643 | 4014 ft | 200 kts | 245° |
| 2026-05-07 01:25 | 45.63813 | -73.53217 | 4016 ft | 204 kts | 226° |
| 2026-05-07 01:26 | 45.62765 | -73.54596 | 3966 ft | 205 kts | 226° |
| 2026-05-07 01:26 | 45.61718 | -73.55974 | 3762 ft | 201 kts | 226° |
| 2026-05-07 01:26 | 45.60729 | -73.57276 | 3521 ft | 186 kts | 227° |
| 2026-05-07 01:26 | 45.59792 | -73.58512 | 3267 ft | 182 kts | 227° |
| 2026-05-07 01:27 | 45.58872 | -73.59726 | 3021 ft | 179 kts | 227° |
| 2026-05-07 01:27 | 45.57961 | -73.60928 | 2775 ft | 178 kts | 227° |
| 2026-05-07 01:27 | 45.57058 | -73.62117 | 2526 ft | 176 kts | 226° |
| 2026-05-07 01:27 | 45.56171 | -73.63286 | 2292 ft | 175 kts | 226° |
| 2026-05-07 01:28 | 45.55277 | -73.64462 | 2056 ft | 173 kts | 226° |
| 2026-05-07 01:28 | 45.54424 | -73.65581 | 1842 ft | 158 kts | 226° |
| 2026-05-07 01:28 | 45.53646 | -73.66603 | 1625 ft | 145 kts | 226° |
| 2026-05-07 01:28 | 45.52920 | -73.67558 | 1414 ft | 139 kts | 226° |
| 2026-05-07 01:29 | 45.52213 | -73.68488 | 1216 ft | 137 kts | 225° |
| 2026-05-07 01:29 | 45.51511 | -73.69411 | 1025 ft | 138 kts | 224° |
| 2026-05-07 01:29 | 45.50810 | -73.70332 | 828 ft | 137 kts | 223° |
| 2026-05-07 01:29 | 45.50116 | -73.71242 | 645 ft | 136 kts | 223° |
| 2026-05-07 01:30 | 45.49416 | -73.72161 | 461 ft | 137 kts | 223° |
| 2026-05-07 01:30 | 45.48711 | -73.73074 | 263 ft | 136 kts | 223° |
| 2026-05-07 01:30 | 45.48027 | -73.73984 | 127 ft | 128 kts | 222° |
| 2026-05-07 01:30 | 45.47462 | -73.74727 | 115 ft | 79 kts | 222° |
| 2026-05-07 01:31 | 45.47095 | -73.75209 | 113 ft | 66 kts | 223° |
| 2026-05-07 01:31 | 45.46827 | -73.75537 | 114 ft | 40 kts | 211° |
| 2026-05-07 01:31 | 45.46575 | -73.75643 | 114 ft | 37 kts | 192° |
| 2026-05-07 01:31 | 45.46326 | -73.75719 | 114 ft | 35 kts | 187° |
| 2026-05-07 01:32 | 45.46155 | -73.75723 | 113 ft | 19 kts | 179° |
| 2026-05-07 01:32 | 45.46062 | -73.75751 | 112 ft | 7 kts | 232° |
| 2026-05-07 01:32 | 45.46050 | -73.75842 | 116 ft | 15 kts | 261° |
| 2026-05-07 01:32 | 45.46000 | -73.75861 | 115 ft | 7 kts | 144° |
| 2026-05-07 01:33 | 45.45970 | -73.75830 | 111 ft | 1 kts | 144° |
| 2026-05-07 01:33 | 45.45968 | -73.75828 | 112 ft | 0 kts | 144° |